createdAt,value
2017-11-30T00:01:34.712Z,30.47
2017-11-30T00:04:02.375Z,29.17
2017-11-30T00:06:29.889Z,29.07
2017-11-30T00:08:57.446Z,29.47
2017-11-30T00:11:24.953Z,29.80
2017-11-30T00:13:52.546Z,30.33
2017-11-30T00:16:20.047Z,31.97
2017-11-30T00:18:47.582Z,31.40
2017-11-30T00:21:15.861Z,31.57
2017-11-30T00:23:43.661Z,26.60
2017-11-30T00:26:11.201Z,30.30
2017-11-30T00:28:39.481Z,26.70
2017-11-30T00:31:06.987Z,29.83
2017-11-30T00:33:34.597Z,28.80
2017-11-30T00:36:02.161Z,31.20
2017-11-30T00:38:29.858Z,30.50
2017-11-30T00:40:57.480Z,30.40
2017-11-30T00:43:31.506Z,29.80
2017-11-30T00:45:59.230Z,30.30
2017-11-30T00:48:27.704Z,27.07
2017-11-30T00:50:55.445Z,28.80
2017-11-30T00:53:22.957Z,28.30
2017-11-30T00:55:50.670Z,30.83
2017-11-30T00:58:18.893Z,31.57
2017-11-30T01:00:46.461Z,30.63
2017-11-30T01:03:13.979Z,29.00
2017-11-30T01:05:41.480Z,29.40
2017-11-30T01:08:09.148Z,28.37
2017-11-30T01:10:36.668Z,29.47
2017-11-30T01:13:04.482Z,29.30
2017-11-30T01:15:31.997Z,31.17
2017-11-30T01:18:00.278Z,28.97
2017-11-30T01:20:27.996Z,29.40
2017-11-30T01:22:55.505Z,29.60
2017-11-30T01:25:23.142Z,29.07
2017-11-30T01:27:50.661Z,29.47
2017-11-30T01:30:18.425Z,29.30
2017-11-30T01:32:46.163Z,29.60
2017-11-30T01:35:13.644Z,28.37
2017-11-30T01:37:41.170Z,25.70
2017-11-30T01:40:08.685Z,25.07
2017-11-30T01:42:36.295Z,29.10
2017-11-30T01:45:03.913Z,28.00
2017-11-30T01:47:31.443Z,28.57
2017-11-30T01:49:58.943Z,25.30
2017-11-30T01:52:26.458Z,29.53
2017-11-30T01:54:54.025Z,28.10
2017-11-30T01:57:21.680Z,26.97
2017-11-30T01:59:49.439Z,23.97
2017-11-30T02:02:16.966Z,26.90
2017-11-30T02:04:44.648Z,27.23
2017-11-30T02:07:12.148Z,26.07
2017-11-30T02:09:39.867Z,26.00
2017-11-30T02:12:07.428Z,24.73
2017-11-30T02:14:34.917Z,25.00
2017-11-30T02:17:02.561Z,26.10
2017-11-30T02:19:30.053Z,22.70
2017-11-30T02:21:57.772Z,24.30
2017-11-30T02:24:25.307Z,22.23
2017-11-30T02:26:52.992Z,22.30
2017-11-30T02:29:20.753Z,22.80
2017-11-30T02:31:48.291Z,19.07
2017-11-30T02:34:15.790Z,21.37
2017-11-30T02:36:43.306Z,21.60
2017-11-30T02:39:10.870Z,22.90
2017-11-30T02:41:38.673Z,25.87
2017-11-30T02:44:06.164Z,22.60
2017-11-30T02:46:33.711Z,23.07
2017-11-30T02:49:01.989Z,22.33
2017-11-30T02:51:29.536Z,21.50
2017-11-30T02:53:57.796Z,21.30
2017-11-30T02:56:25.329Z,22.67
2017-11-30T02:58:53.080Z,23.40
2017-11-30T03:01:20.608Z,24.20
2017-11-30T03:03:48.890Z,23.27
2017-11-30T03:06:17.515Z,24.73
2017-11-30T03:08:45.021Z,21.57
2017-11-30T03:11:12.654Z,24.57
2017-11-30T03:13:40.154Z,24.60
2017-11-30T03:16:07.945Z,26.53
2017-11-30T03:18:35.477Z,24.63
2017-11-30T03:21:02.969Z,21.23
2017-11-30T03:23:30.473Z,27.47
2017-11-30T03:25:58.740Z,27.77
2017-11-30T03:28:26.252Z,28.30
2017-11-30T03:30:54.418Z,27.90
2017-11-30T03:33:22.852Z,27.43
2017-11-30T03:35:50.358Z,25.27
2017-11-30T03:38:17.947Z,28.10
2017-11-30T03:40:45.430Z,26.60
2017-11-30T03:43:13.696Z,26.43
2017-11-30T03:45:41.424Z,27.30
2017-11-30T03:48:08.938Z,28.23
2017-11-30T03:50:36.614Z,26.80
2017-11-30T03:53:04.122Z,25.20
2017-11-30T03:55:31.622Z,26.20
2017-11-30T03:57:59.154Z,27.03
2017-11-30T04:00:26.687Z,23.33
2017-11-30T04:02:54.238Z,25.37
2017-11-30T04:05:21.997Z,26.03
2017-11-30T04:07:49.783Z,26.60
2017-11-30T04:10:17.543Z,27.60
2017-11-30T04:12:45.063Z,26.20
2017-11-30T04:15:12.570Z,28.67
2017-11-30T04:17:40.212Z,26.40
2017-11-30T04:20:07.717Z,23.97
2017-11-30T04:22:35.413Z,26.53
2017-11-30T04:25:02.957Z,25.20
2017-11-30T04:27:30.468Z,27.00
2017-11-30T04:29:57.973Z,26.17
2017-11-30T04:32:25.554Z,26.97
2017-11-30T04:34:53.226Z,26.50
2017-11-30T04:37:20.792Z,29.60
2017-11-30T04:39:48.295Z,28.10
2017-11-30T04:42:15.953Z,25.33
2017-11-30T04:44:43.487Z,24.33
2017-11-30T04:47:10.982Z,26.53
2017-11-30T04:49:38.652Z,27.70
2017-11-30T04:52:06.157Z,25.30
2017-11-30T04:54:33.881Z,26.27
2017-11-30T04:57:02.012Z,25.90
2017-11-30T04:59:29.550Z,24.53
2017-11-30T05:01:57.160Z,21.83
2017-11-30T05:04:24.944Z,22.27
2017-11-30T05:06:52.456Z,22.17
2017-11-30T05:09:20.045Z,21.90
2017-11-30T05:11:47.644Z,21.87
2017-11-30T05:14:15.233Z,21.60
2017-11-30T05:16:43.510Z,20.93
2017-11-30T05:19:11.026Z,24.27
2017-11-30T05:21:38.554Z,24.87
2017-11-30T05:24:06.057Z,24.73
2017-11-30T05:26:33.593Z,25.90
2017-11-30T05:29:01.422Z,26.77
2017-11-30T05:31:28.960Z,26.77
2017-11-30T05:33:57.221Z,26.17
2017-11-30T05:36:24.849Z,28.30
2017-11-30T05:38:52.353Z,27.33
2017-11-30T05:41:19.873Z,26.83
2017-11-30T05:43:47.413Z,26.73
2017-11-30T05:46:14.927Z,30.77
2017-11-30T05:48:43.465Z,27.97
2017-11-30T05:51:10.969Z,29.70
2017-11-30T05:53:38.508Z,28.40
2017-11-30T05:56:06.140Z,30.10
2017-11-30T05:58:33.658Z,32.00
2017-11-30T06:01:01.367Z,30.40
2017-11-30T06:03:29.089Z,27.80
2017-11-30T06:05:56.700Z,29.03
2017-11-30T06:08:24.205Z,25.73
2017-11-30T06:10:51.725Z,30.30
2017-11-30T06:13:19.258Z,25.07
2017-11-30T06:15:46.757Z,26.87
2017-11-30T06:18:14.413Z,25.67
2017-11-30T06:20:41.942Z,29.03
2017-11-30T06:23:09.705Z,25.73
2017-11-30T06:25:37.258Z,24.77
2017-11-30T06:28:04.887Z,26.70
2017-11-30T06:30:32.386Z,28.10
2017-11-30T06:32:59.907Z,29.53
2017-11-30T06:35:27.411Z,29.40
2017-11-30T06:37:54.945Z,28.57
2017-11-30T06:40:22.488Z,27.17
2017-11-30T06:42:50.006Z,28.90
2017-11-30T06:45:17.726Z,29.97
2017-11-30T06:47:45.257Z,27.33
2017-11-30T06:50:12.919Z,29.20
2017-11-30T06:52:40.418Z,30.40
2017-11-30T06:55:07.924Z,27.37
2017-11-30T06:57:35.419Z,28.47
2017-11-30T07:00:03.012Z,27.60
2017-11-30T07:02:31.398Z,27.70
2017-11-30T07:04:59.007Z,29.10
2017-11-30T07:07:26.713Z,29.83
2017-11-30T07:09:54.349Z,27.77
2017-11-30T07:12:21.862Z,27.50
2017-11-30T07:14:49.376Z,28.77
2017-11-30T07:17:17.098Z,31.40
2017-11-30T07:19:44.617Z,28.33
2017-11-30T07:22:12.174Z,25.63
2017-11-30T07:24:40.446Z,25.67
2017-11-30T07:27:08.298Z,28.27
2017-11-30T07:29:35.791Z,28.03
2017-11-30T07:32:03.307Z,28.20
2017-11-30T07:34:30.857Z,30.80
2017-11-30T07:36:59.564Z,27.30
2017-11-30T07:39:27.313Z,27.63
2017-11-30T07:41:55.057Z,29.20
2017-11-30T07:44:22.557Z,27.57
2017-11-30T07:46:50.256Z,27.10
2017-11-30T07:49:17.777Z,28.47
2017-11-30T07:51:45.497Z,25.80
2017-11-30T07:54:13.245Z,24.00
2017-11-30T07:56:41.029Z,24.33
2017-11-30T07:59:08.541Z,24.47
2017-11-30T08:01:36.053Z,27.50
2017-11-30T08:04:03.580Z,21.93
2017-11-30T08:06:31.074Z,24.17
2017-11-30T08:08:58.615Z,23.23
2017-11-30T08:11:26.349Z,22.27
2017-11-30T08:13:54.140Z,20.70
2017-11-30T08:16:21.637Z,20.70
2017-11-30T08:18:49.370Z,25.40
2017-11-30T08:21:17.013Z,17.63
2017-11-30T08:23:44.553Z,21.03
2017-11-30T08:26:12.044Z,22.40
2017-11-30T08:28:39.552Z,21.33
2017-11-30T08:31:07.054Z,20.93
2017-11-30T08:33:34.568Z,20.93
2017-11-30T08:36:02.477Z,20.50
2017-11-30T08:38:29.981Z,21.10
2017-11-30T08:40:57.697Z,20.93
2017-11-30T08:43:25.460Z,18.90
2017-11-30T08:45:53.228Z,18.97
2017-11-30T08:48:20.742Z,17.57
2017-11-30T08:50:49.103Z,16.50
2017-11-30T08:53:16.610Z,19.70
2017-11-30T08:55:44.104Z,18.67
2017-11-30T08:58:11.610Z,19.40
2017-11-30T09:00:39.118Z,23.13
2017-11-30T09:03:06.625Z,26.63
2017-11-30T09:05:34.308Z,21.60
2017-11-30T09:08:01.933Z,22.40
2017-11-30T09:10:29.432Z,25.53
2017-11-30T09:12:56.935Z,23.03
2017-11-30T09:15:25.199Z,26.57
2017-11-30T09:17:52.929Z,26.33
2017-11-30T09:20:20.709Z,25.20
2017-11-30T09:22:48.451Z,23.70
2017-11-30T09:25:15.962Z,26.30
2017-11-30T09:27:43.509Z,23.33
2017-11-30T09:30:11.026Z,25.00
2017-11-30T09:32:38.534Z,25.63
2017-11-30T09:35:06.093Z,26.50
2017-11-30T09:37:34.815Z,24.20
2017-11-30T09:40:02.459Z,19.33
2017-11-30T09:42:29.965Z,18.87
2017-11-30T09:44:57.452Z,20.67
2017-11-30T09:47:25.171Z,18.23
2017-11-30T09:49:52.679Z,17.10
2017-11-30T09:52:20.277Z,18.57
2017-11-30T09:54:47.800Z,19.70
2017-11-30T09:57:15.944Z,19.63
2017-11-30T09:59:43.458Z,17.20
2017-11-30T10:02:10.961Z,17.37
2017-11-30T10:04:38.471Z,17.23
2017-11-30T10:07:05.991Z,16.83
2017-11-30T10:09:33.522Z,17.80
2017-11-30T10:12:01.046Z,19.40
2017-11-30T10:14:28.608Z,20.53
2017-11-30T10:16:56.177Z,22.93
2017-11-30T10:19:23.741Z,18.50
2017-11-30T10:21:51.247Z,19.90
2017-11-30T10:24:19.596Z,18.07
2017-11-30T10:26:47.290Z,18.80
2017-11-30T10:29:14.959Z,21.93
2017-11-30T10:31:42.469Z,20.70
2017-11-30T10:34:10.018Z,18.30
2017-11-30T10:36:37.514Z,18.30
2017-11-30T10:39:05.801Z,18.33
2017-11-30T10:41:33.298Z,19.50
2017-11-30T10:44:00.813Z,19.83
2017-11-30T10:46:28.337Z,17.57
2017-11-30T10:48:55.875Z,19.50
2017-11-30T10:51:23.389Z,21.60
2017-11-30T10:53:51.135Z,20.13
2017-11-30T10:56:18.646Z,18.03
2017-11-30T10:58:46.154Z,22.17
2017-11-30T11:01:14.454Z,14.67
2017-11-30T11:03:41.963Z,17.30
2017-11-30T11:06:09.510Z,19.20
2017-11-30T11:08:37.016Z,18.30
2017-11-30T11:11:04.873Z,19.60
2017-11-30T11:13:33.218Z,19.23
2017-11-30T11:16:00.739Z,19.00
2017-11-30T11:18:28.432Z,20.90
2017-11-30T11:20:55.977Z,20.93
2017-11-30T11:23:23.520Z,22.63
2017-11-30T11:25:51.129Z,24.17
2017-11-30T11:28:18.668Z,22.87
2017-11-30T11:30:46.361Z,23.77
2017-11-30T11:33:13.876Z,22.00
2017-11-30T11:35:41.415Z,25.10
2017-11-30T11:38:09.060Z,24.83
2017-11-30T11:40:36.579Z,25.53
2017-11-30T11:43:04.179Z,23.43
2017-11-30T11:45:31.669Z,24.17
2017-11-30T11:47:59.225Z,24.03
2017-11-30T11:50:26.749Z,26.00
2017-11-30T11:52:54.248Z,22.80
2017-11-30T11:55:22.334Z,23.70
2017-11-30T11:57:49.833Z,22.73
2017-11-30T12:00:17.366Z,25.30
2017-11-30T12:02:44.857Z,26.80
2017-11-30T12:05:12.361Z,23.17
2017-11-30T12:07:39.887Z,23.33
2017-11-30T12:10:07.388Z,22.50
2017-11-30T12:12:34.933Z,23.27
2017-11-30T12:15:02.480Z,21.23
2017-11-30T12:17:30.124Z,20.67
2017-11-30T12:19:57.676Z,21.93
2017-11-30T12:22:25.222Z,22.07
2017-11-30T12:24:53.564Z,23.50
2017-11-30T12:27:21.178Z,19.43
2017-11-30T12:29:48.697Z,19.80
2017-11-30T12:32:16.216Z,20.50
2017-11-30T12:34:43.874Z,20.80
2017-11-30T12:37:11.416Z,20.00
2017-11-30T12:39:39.102Z,19.77
2017-11-30T12:42:06.678Z,21.10
2017-11-30T12:44:34.236Z,20.50
2017-11-30T12:47:01.806Z,21.67
2017-11-30T12:49:29.345Z,20.47
2017-11-30T12:51:56.925Z,19.93
2017-11-30T12:54:24.466Z,17.80
2017-11-30T12:56:51.966Z,18.73
2017-11-30T12:59:19.500Z,18.70
2017-11-30T13:01:47.949Z,19.00
2017-11-30T13:04:15.507Z,21.03
2017-11-30T13:06:43.046Z,18.97
2017-11-30T13:09:10.715Z,21.20
2017-11-30T13:11:38.243Z,21.07
2017-11-30T13:14:05.772Z,19.87
2017-11-30T13:16:34.764Z,18.83
2017-11-30T13:19:03.061Z,19.77
2017-11-30T13:21:30.610Z,19.30
2017-11-30T13:23:58.914Z,19.70
2017-11-30T13:26:26.576Z,20.27
2017-11-30T13:28:54.388Z,20.37
2017-11-30T13:31:21.883Z,19.30
2017-11-30T13:33:49.580Z,19.13
2017-11-30T13:36:17.404Z,18.90
2017-11-30T13:38:44.972Z,19.47
2017-11-30T13:41:12.479Z,18.67
2017-11-30T13:43:39.985Z,17.20
2017-11-30T13:46:07.520Z,18.97
2017-11-30T13:48:35.116Z,19.17
2017-11-30T13:51:02.722Z,16.70
2017-11-30T13:53:30.237Z,18.00
2017-11-30T13:55:57.742Z,18.20
2017-11-30T13:58:25.634Z,16.47
2017-11-30T14:00:53.138Z,17.50
2017-11-30T14:03:20.632Z,17.73
2017-11-30T14:05:48.216Z,16.00
2017-11-30T14:08:15.855Z,18.47
2017-11-30T14:10:43.399Z,18.30
2017-11-30T14:13:11.797Z,17.73
2017-11-30T14:15:40.079Z,18.73
2017-11-30T14:18:07.805Z,18.43
2017-11-30T14:20:35.315Z,18.93
2017-11-30T14:23:03.051Z,17.20
2017-11-30T14:25:30.551Z,17.23
2017-11-30T14:27:58.232Z,19.20
2017-11-30T14:30:25.774Z,16.80
2017-11-30T14:32:53.284Z,18.20
2017-11-30T14:35:21.826Z,17.10
2017-11-30T14:37:50.140Z,16.20
2017-11-30T14:40:18.604Z,19.87
2017-11-30T14:42:46.132Z,16.00
2017-11-30T14:45:13.813Z,19.10
2017-11-30T14:47:41.396Z,17.20
2017-11-30T14:50:09.031Z,17.20
2017-11-30T14:52:36.560Z,17.13
2017-11-30T14:55:04.384Z,16.80
2017-11-30T14:57:31.888Z,18.07
2017-11-30T14:59:59.427Z,17.20
2017-11-30T15:02:27.244Z,19.03
2017-11-30T15:04:54.752Z,18.33
2017-11-30T15:07:22.511Z,18.23
2017-11-30T15:09:49.980Z,18.00
2017-11-30T15:12:17.536Z,15.77
2017-11-30T15:14:45.039Z,16.33
2017-11-30T15:17:12.585Z,18.50
2017-11-30T15:19:40.077Z,17.60
2017-11-30T15:22:07.644Z,15.83
2017-11-30T15:24:35.936Z,14.97
2017-11-30T15:27:03.648Z,17.10
2017-11-30T15:29:31.159Z,15.17
2017-11-30T15:31:58.855Z,15.87
2017-11-30T15:34:26.358Z,16.37
2017-11-30T15:36:54.673Z,15.77
2017-11-30T15:39:22.179Z,15.30
2017-11-30T15:41:49.675Z,15.27
2017-11-30T15:44:17.215Z,12.83
2017-11-30T15:46:45.603Z,11.33
2017-11-30T15:49:13.109Z,12.50
2017-11-30T15:51:40.621Z,13.40
2017-11-30T15:54:08.427Z,11.40
2017-11-30T15:56:36.192Z,12.87
2017-11-30T15:59:03.943Z,14.20
2017-11-30T16:01:31.459Z,14.03
2017-11-30T16:03:58.982Z,14.17
2017-11-30T16:06:26.504Z,13.97
2017-11-30T16:08:54.057Z,14.67
2017-11-30T16:11:21.610Z,14.27
2017-11-30T16:13:49.163Z,14.40
2017-11-30T16:16:16.754Z,15.30
2017-11-30T16:18:44.286Z,13.17
2017-11-30T16:21:12.512Z,13.37
2017-11-30T16:23:40.231Z,14.87
2017-11-30T16:26:07.870Z,16.23
2017-11-30T16:28:35.584Z,15.97
2017-11-30T16:31:03.088Z,16.93
2017-11-30T16:33:30.826Z,16.83
2017-11-30T16:35:58.340Z,18.70
2017-11-30T16:38:25.836Z,17.70
2017-11-30T16:40:53.495Z,17.90
2017-11-30T16:43:21.035Z,17.83
2017-11-30T16:45:48.544Z,18.17
2017-11-30T16:48:16.064Z,18.83
2017-11-30T16:50:43.563Z,19.43
2017-11-30T16:53:11.576Z,18.90
2017-11-30T16:55:39.104Z,18.37
2017-11-30T16:58:06.623Z,19.73
2017-11-30T17:00:34.353Z,16.83
2017-11-30T17:03:02.167Z,19.23
2017-11-30T17:05:29.741Z,18.07
2017-11-30T17:07:57.264Z,21.57
2017-11-30T17:10:24.796Z,19.60
2017-11-30T17:12:54.019Z,18.80
2017-11-30T17:15:21.548Z,17.27
2017-11-30T17:17:49.099Z,18.63
2017-11-30T17:20:16.599Z,18.67
2017-11-30T17:22:44.229Z,17.83
2017-11-30T17:25:11.749Z,18.17
2017-11-30T17:27:39.269Z,19.97
2017-11-30T17:30:06.886Z,19.03
2017-11-30T17:32:34.425Z,19.50
2017-11-30T17:35:01.923Z,22.83
2017-11-30T17:37:29.432Z,21.93
2017-11-30T17:39:57.020Z,20.77
2017-11-30T17:42:24.544Z,21.57
2017-11-30T17:44:52.076Z,20.20
2017-11-30T17:47:19.584Z,20.30
2017-11-30T17:49:47.150Z,22.20
2017-11-30T17:52:14.662Z,20.47
2017-11-30T17:54:42.379Z,21.60
2017-11-30T17:57:09.868Z,19.83
2017-11-30T17:59:38.117Z,18.73
2017-11-30T18:02:05.707Z,19.03
2017-11-30T18:04:33.650Z,19.00
2017-11-30T18:07:01.168Z,19.93
2017-11-30T18:09:28.707Z,19.63
2017-11-30T18:11:56.272Z,20.03
2017-11-30T18:14:24.640Z,20.57
2017-11-30T18:16:52.952Z,19.63
2017-11-30T18:19:20.575Z,19.80
2017-11-30T18:21:48.820Z,22.50
2017-11-30T18:24:16.328Z,20.27
2017-11-30T18:26:44.051Z,21.03
2017-11-30T18:29:11.558Z,18.60
2017-11-30T18:31:39.119Z,19.27
2017-11-30T18:34:06.633Z,18.43
2017-11-30T18:36:34.379Z,19.90
2017-11-30T18:39:01.888Z,19.03
2017-11-30T18:41:29.397Z,17.63
2017-11-30T18:43:56.913Z,17.80
2017-11-30T18:46:24.425Z,16.80
2017-11-30T18:48:51.943Z,17.43
2017-11-30T18:51:19.444Z,13.70
2017-11-30T18:53:46.955Z,13.03
2017-11-30T18:56:14.460Z,10.50
2017-11-30T18:58:42.101Z,9.60
2017-11-30T19:01:09.638Z,13.00
2017-11-30T19:03:37.451Z,12.30
2017-11-30T19:06:05.731Z,16.63
2017-11-30T19:08:34.147Z,15.97
2017-11-30T19:11:01.816Z,15.07
2017-11-30T19:13:29.352Z,16.00
2017-11-30T19:15:56.967Z,17.33
2017-11-30T19:18:24.507Z,12.27
2017-11-30T19:20:52.018Z,12.00
2017-11-30T19:23:19.588Z,13.77
2017-11-30T19:25:47.107Z,11.77
2017-11-30T19:28:14.599Z,13.73
2017-11-30T19:30:42.168Z,15.30
2017-11-30T19:33:09.739Z,14.07
2017-11-30T19:35:37.276Z,13.87
2017-11-30T19:38:05.075Z,12.67
2017-11-30T19:40:32.580Z,12.37
2017-11-30T19:43:01.224Z,11.40
2017-11-30T19:45:28.750Z,12.33
2017-11-30T19:47:56.252Z,13.63
2017-11-30T19:50:23.872Z,15.50
2017-11-30T19:52:51.392Z,16.27
2017-11-30T19:55:18.911Z,17.23
2017-11-30T19:57:46.577Z,20.90
2017-11-30T20:00:14.084Z,22.17
2017-11-30T20:02:41.600Z,21.70
2017-11-30T20:05:09.226Z,21.90
2017-11-30T20:07:36.752Z,20.53
2017-11-30T20:10:04.280Z,20.50
2017-11-30T20:12:31.784Z,19.83
2017-11-30T20:14:59.291Z,21.73
2017-11-30T20:17:26.830Z,21.77
2017-11-30T20:19:54.352Z,20.57
2017-11-30T20:22:22.076Z,22.10
2017-11-30T20:24:49.589Z,19.80
2017-11-30T20:27:17.087Z,21.00
2017-11-30T20:29:44.853Z,19.90
2017-11-30T20:32:12.384Z,20.70
2017-11-30T20:34:39.955Z,21.10
2017-11-30T20:37:07.489Z,21.83
2017-11-30T20:39:34.987Z,21.70
2017-11-30T20:42:02.647Z,21.10
2017-11-30T20:44:30.155Z,21.57
2017-11-30T20:46:57.760Z,21.07
2017-11-30T20:49:25.274Z,19.60
2017-11-30T20:51:52.838Z,19.10
2017-11-30T20:54:20.851Z,21.07
2017-11-30T20:56:48.403Z,20.57
2017-11-30T20:59:15.924Z,19.90
2017-11-30T21:01:43.448Z,19.73
2017-11-30T21:04:11.012Z,20.37
2017-11-30T21:06:38.753Z,20.20
2017-11-30T21:09:07.760Z,19.43
2017-11-30T21:11:35.276Z,17.53
2017-11-30T21:14:02.780Z,20.87
2017-11-30T21:16:31.067Z,19.13
2017-11-30T21:18:59.353Z,20.10
2017-11-30T21:21:26.871Z,19.03
2017-11-30T21:23:54.356Z,19.87
2017-11-30T21:26:22.083Z,18.53
2017-11-30T21:28:49.592Z,19.53
2017-11-30T21:31:17.110Z,17.43
2017-11-30T21:33:44.619Z,17.43
2017-11-30T21:36:12.244Z,19.50
2017-11-30T21:38:39.752Z,19.93
2017-11-30T21:41:07.298Z,19.30
2017-11-30T21:43:34.862Z,18.70
2017-11-30T21:46:02.383Z,19.83
2017-11-30T21:48:29.940Z,17.97
2017-11-30T21:50:58.476Z,18.93
2017-11-30T21:53:26.017Z,18.33
2017-11-30T21:55:53.690Z,16.90
2017-11-30T21:58:21.236Z,18.17
2017-11-30T22:00:48.968Z,18.73
2017-11-30T22:03:16.675Z,19.33
2017-11-30T22:05:44.175Z,19.10
2017-11-30T22:08:12.344Z,17.97
2017-11-30T22:10:40.647Z,17.83
2017-11-30T22:13:08.328Z,17.80
2017-11-30T22:15:35.821Z,17.67
2017-11-30T22:18:03.452Z,19.50
2017-11-30T22:20:30.988Z,17.00
2017-11-30T22:22:58.524Z,17.60
2017-11-30T22:25:26.208Z,19.27
2017-11-30T22:27:54.026Z,18.30
2017-11-30T22:30:21.579Z,17.50
2017-11-30T22:32:50.786Z,17.53
2017-11-30T22:35:18.735Z,17.60
2017-11-30T22:37:46.882Z,19.70
2017-11-30T22:40:14.480Z,17.30
2017-11-30T22:42:42.374Z,19.73
2017-11-30T22:45:09.979Z,18.23
2017-11-30T22:47:37.484Z,19.20
2017-11-30T22:50:07.199Z,19.83
2017-11-30T22:52:35.216Z,19.17
2017-11-30T22:55:02.882Z,17.33
2017-11-30T22:57:31.575Z,19.43
2017-11-30T22:59:59.124Z,18.50
2017-11-30T23:02:26.704Z,18.90
2017-11-30T23:04:54.285Z,18.07
2017-11-30T23:07:21.767Z,17.50
2017-11-30T23:09:49.339Z,19.93
2017-11-30T23:12:17.133Z,19.87
2017-11-30T23:14:44.710Z,18.00
2017-11-30T23:17:12.208Z,20.20
2017-11-30T23:19:39.733Z,18.63
2017-11-30T23:22:07.232Z,19.70
2017-11-30T23:24:34.731Z,20.80
2017-11-30T23:27:02.481Z,18.73
2017-11-30T23:29:29.979Z,17.57
2017-11-30T23:31:57.739Z,19.63
2017-11-30T23:34:25.243Z,17.90
2017-11-30T23:36:52.752Z,19.13
2017-11-30T23:39:20.376Z,20.33
2017-11-30T23:41:48.149Z,19.63
2017-11-30T23:44:15.679Z,20.57
2017-11-30T23:46:43.344Z,19.70
2017-11-30T23:49:10.839Z,17.73
2017-11-30T23:51:38.395Z,17.80
2017-11-30T23:54:05.907Z,18.37
2017-11-30T23:56:34.426Z,17.57
2017-11-30T23:59:01.932Z,18.27
